Maidstone, Canada
Current Conditions -  °F | °C
As of 9:00 AM on Saturday 22 Nov 2014 (Local Time) from CYLL Reporting Station
Light Snow Light Snow  
Wind Chill: 13°   Ceiling: 600
Heat Index: 25°   Visibility: 1.2mi
Dew Point: 23°   Wind: 14mph
Humidity: 93%   Direction: 100°E
Pressure: 29.21"   Gusts: 24mph
Location:  53.08°N, 109.3°W
Report Text: CYLL 221500Z 10012G21KT 1 1/4SM -SN BLSN OVC006 M04/M05 A2921 RMK SC8 SLP923
Loading
Personal Weather Stations






























Interactive Weather Map New forecast layout! Learn more

10-Day Weather Forecast

Advertisements
Track Severe Weather on mobile